sensor_id;sensor_type;location;lat;lon;timestamp;P1;durP1;ratioP1;P2;durP2;ratioP2
61188;SDS011;47054;39.716;2.904;2023-05-20T00:00:10;4.93;;;1.80;;
61188;SDS011;47054;39.716;2.904;2023-05-20T00:02:55;3.13;;;1.77;;
61188;SDS011;47054;39.716;2.904;2023-05-20T00:05:40;2.55;;;1.65;;
61188;SDS011;47054;39.716;2.904;2023-05-20T00:08:25;3.28;;;1.80;;
61188;SDS011;47054;39.716;2.904;2023-05-20T00:11:10;3.13;;;1.70;;
61188;SDS011;47054;39.716;2.904;2023-05-20T00:13:54;3.80;;;1.60;;
61188;SDS011;47054;39.716;2.904;2023-05-20T00:16:39;3.15;;;1.88;;
61188;SDS011;47054;39.716;2.904;2023-05-20T00:19:24;3.97;;;1.90;;
61188;SDS011;47054;39.716;2.904;2023-05-20T00:22:09;3.25;;;1.80;;
61188;SDS011;47054;39.716;2.904;2023-05-20T00:24:53;2.97;;;1.70;;
61188;SDS011;47054;39.716;2.904;2023-05-20T00:27:38;3.28;;;1.80;;
61188;SDS011;47054;39.716;2.904;2023-05-20T00:30:22;3.33;;;1.80;;
61188;SDS011;47054;39.716;2.904;2023-05-20T00:33:07;4.35;;;1.90;;
61188;SDS011;47054;39.716;2.904;2023-05-20T00:35:52;3.95;;;1.83;;
61188;SDS011;47054;39.716;2.904;2023-05-20T00:38:37;3.38;;;1.80;;
61188;SDS011;47054;39.716;2.904;2023-05-20T00:41:21;2.58;;;1.70;;
61188;SDS011;47054;39.716;2.904;2023-05-20T00:44:06;4.85;;;1.98;;
61188;SDS011;47054;39.716;2.904;2023-05-20T00:46:50;3.50;;;1.60;;
61188;SDS011;47054;39.716;2.904;2023-05-20T00:49:36;4.50;;;1.80;;
61188;SDS011;47054;39.716;2.904;2023-05-20T00:52:20;3.10;;;2.00;;
61188;SDS011;47054;39.716;2.904;2023-05-20T00:55:06;3.42;;;1.75;;
61188;SDS011;47054;39.716;2.904;2023-05-20T00:57:51;4.30;;;1.88;;
61188;SDS011;47054;39.716;2.904;2023-05-20T01:00:36;3.92;;;1.70;;
61188;SDS011;47054;39.716;2.904;2023-05-20T01:03:22;3.28;;;1.98;;
61188;SDS011;47054;39.716;2.904;2023-05-20T01:06:06;2.85;;;1.80;;
61188;SDS011;47054;39.716;2.904;2023-05-20T01:08:51;3.25;;;1.90;;
61188;SDS011;47054;39.716;2.904;2023-05-20T01:12:11;3.00;;;1.80;;
61188;SDS011;47054;39.716;2.904;2023-05-20T01:14:55;3.58;;;2.10;;
61188;SDS011;47054;39.716;2.904;2023-05-20T01:17:50;5.00;;;2.08;;
61188;SDS011;47054;39.716;2.904;2023-05-20T01:20:35;3.30;;;1.77;;
61188;SDS011;47054;39.716;2.904;2023-05-20T01:23:20;4.95;;;1.83;;
61188;SDS011;47054;39.716;2.904;2023-05-20T01:26:06;2.92;;;1.73;;
61188;SDS011;47054;39.716;2.904;2023-05-20T01:28:51;3.25;;;1.77;;
61188;SDS011;47054;39.716;2.904;2023-05-20T01:31:36;2.50;;;1.65;;
61188;SDS011;47054;39.716;2.904;2023-05-20T01:34:21;3.35;;;1.90;;
61188;SDS011;47054;39.716;2.904;2023-05-20T01:37:08;2.80;;;1.90;;
61188;SDS011;47054;39.716;2.904;2023-05-20T01:39:54;5.18;;;1.90;;
61188;SDS011;47054;39.716;2.904;2023-05-20T01:42:41;3.08;;;1.83;;
61188;SDS011;47054;39.716;2.904;2023-05-20T01:45:26;3.10;;;1.73;;
61188;SDS011;47054;39.716;2.904;2023-05-20T01:48:11;3.97;;;1.85;;
61188;SDS011;47054;39.716;2.904;2023-05-20T01:50:56;2.20;;;1.40;;
61188;SDS011;47054;39.716;2.904;2023-05-20T01:53:41;3.88;;;1.60;;
61188;SDS011;47054;39.716;2.904;2023-05-20T01:56:26;4.55;;;1.80;;
61188;SDS011;47054;39.716;2.904;2023-05-20T01:59:10;3.13;;;1.80;;
61188;SDS011;47054;39.716;2.904;2023-05-20T02:01:56;2.95;;;1.80;;
61188;SDS011;47054;39.716;2.904;2023-05-20T02:04:44;5.00;;;1.75;;
61188;SDS011;47054;39.716;2.904;2023-05-20T02:10:17;3.10;;;1.73;;
61188;SDS011;47054;39.716;2.904;2023-05-20T02:13:03;5.65;;;1.90;;
61188;SDS011;47054;39.716;2.904;2023-05-20T02:15:49;2.90;;;1.70;;
61188;SDS011;47054;39.716;2.904;2023-05-20T02:18:36;3.63;;;1.83;;
61188;SDS011;47054;39.716;2.904;2023-05-20T02:21:21;4.15;;;1.83;;
61188;SDS011;47054;39.716;2.904;2023-05-20T02:24:06;3.63;;;1.63;;
61188;SDS011;47054;39.716;2.904;2023-05-20T02:26:51;3.25;;;1.80;;
61188;SDS011;47054;39.716;2.904;2023-05-20T02:29:37;3.55;;;1.63;;
61188;SDS011;47054;39.716;2.904;2023-05-20T02:32:21;3.22;;;2.05;;
61188;SDS011;47054;39.716;2.904;2023-05-20T02:35:11;4.57;;;1.85;;
61188;SDS011;47054;39.716;2.904;2023-05-20T02:37:55;4.22;;;1.70;;
61188;SDS011;47054;39.716;2.904;2023-05-20T02:40:43;4.38;;;1.80;;
61188;SDS011;47054;39.716;2.904;2023-05-20T02:43:28;3.42;;;1.80;;
61188;SDS011;47054;39.716;2.904;2023-05-20T02:46:12;2.42;;;1.55;;
61188;SDS011;47054;39.716;2.904;2023-05-20T02:48:58;4.10;;;1.73;;
61188;SDS011;47054;39.716;2.904;2023-05-20T02:51:43;3.58;;;1.70;;
61188;SDS011;47054;39.716;2.904;2023-05-20T02:54:28;3.47;;;1.70;;
61188;SDS011;47054;39.716;2.904;2023-05-20T02:57:13;3.47;;;1.92;;
61188;SDS011;47054;39.716;2.904;2023-05-20T02:59:58;2.90;;;1.63;;
61188;SDS011;47054;39.716;2.904;2023-05-20T03:02:43;2.78;;;1.80;;
61188;SDS011;47054;39.716;2.904;2023-05-20T03:05:28;3.63;;;1.85;;
61188;SDS011;47054;39.716;2.904;2023-05-20T03:08:13;2.95;;;1.70;;
61188;SDS011;47054;39.716;2.904;2023-05-20T03:10:58;3.75;;;1.95;;
61188;SDS011;47054;39.716;2.904;2023-05-20T03:13:43;3.25;;;1.80;;
61188;SDS011;47054;39.716;2.904;2023-05-20T03:16:27;4.15;;;1.80;;
61188;SDS011;47054;39.716;2.904;2023-05-20T03:19:12;3.00;;;1.70;;
61188;SDS011;47054;39.716;2.904;2023-05-20T03:21:57;3.58;;;1.80;;
61188;SDS011;47054;39.716;2.904;2023-05-20T03:24:41;3.30;;;1.70;;
61188;SDS011;47054;39.716;2.904;2023-05-20T03:27:30;3.53;;;1.70;;
61188;SDS011;47054;39.716;2.904;2023-05-20T03:30:15;4.07;;;1.77;;
61188;SDS011;47054;39.716;2.904;2023-05-20T03:32:59;5.43;;;1.88;;
61188;SDS011;47054;39.716;2.904;2023-05-20T03:35:46;2.80;;;1.80;;
61188;SDS011;47054;39.716;2.904;2023-05-20T03:38:32;3.10;;;1.70;;
61188;SDS011;47054;39.716;2.904;2023-05-20T03:41:17;2.30;;;1.67;;
61188;SDS011;47054;39.716;2.904;2023-05-20T03:44:02;3.53;;;1.65;;
61188;SDS011;47054;39.716;2.904;2023-05-20T03:46:47;4.38;;;1.70;;
61188;SDS011;47054;39.716;2.904;2023-05-20T03:49:32;3.45;;;1.60;;
61188;SDS011;47054;39.716;2.904;2023-05-20T03:52:16;4.03;;;1.95;;
61188;SDS011;47054;39.716;2.904;2023-05-20T03:55:01;3.53;;;1.70;;
61188;SDS011;47054;39.716;2.904;2023-05-20T03:57:47;3.75;;;1.73;;
61188;SDS011;47054;39.716;2.904;2023-05-20T04:00:31;2.95;;;1.50;;
61188;SDS011;47054;39.716;2.904;2023-05-20T04:03:16;3.38;;;1.75;;
61188;SDS011;47054;39.716;2.904;2023-05-20T04:06:02;4.07;;;1.85;;
61188;SDS011;47054;39.716;2.904;2023-05-20T04:08:47;4.15;;;1.73;;
61188;SDS011;47054;39.716;2.904;2023-05-20T04:11:33;3.05;;;1.50;;
61188;SDS011;47054;39.716;2.904;2023-05-20T04:14:18;4.07;;;1.60;;
61188;SDS011;47054;39.716;2.904;2023-05-20T04:17:02;3.47;;;1.60;;
61188;SDS011;47054;39.716;2.904;2023-05-20T04:19:49;4.50;;;2.00;;
61188;SDS011;47054;39.716;2.904;2023-05-20T04:22:34;3.58;;;1.70;;
61188;SDS011;47054;39.716;2.904;2023-05-20T04:25:19;2.78;;;1.50;;
61188;SDS011;47054;39.716;2.904;2023-05-20T04:28:03;2.28;;;1.30;;
61188;SDS011;47054;39.716;2.904;2023-05-20T04:30:56;2.63;;;1.65;;
61188;SDS011;47054;39.716;2.904;2023-05-20T04:33:42;2.60;;;1.50;;
61188;SDS011;47054;39.716;2.904;2023-05-20T04:36:29;3.70;;;1.60;;
61188;SDS011;47054;39.716;2.904;2023-05-20T04:39:14;3.75;;;1.60;;
61188;SDS011;47054;39.716;2.904;2023-05-20T04:41:59;2.58;;;1.63;;
61188;SDS011;47054;39.716;2.904;2023-05-20T04:44:43;2.70;;;1.50;;
61188;SDS011;47054;39.716;2.904;2023-05-20T04:47:32;4.45;;;1.73;;
61188;SDS011;47054;39.716;2.904;2023-05-20T04:50:21;2.80;;;1.40;;
61188;SDS011;47054;39.716;2.904;2023-05-20T04:53:06;2.75;;;1.58;;
61188;SDS011;47054;39.716;2.904;2023-05-20T04:55:55;4.50;;;1.52;;
61188;SDS011;47054;39.716;2.904;2023-05-20T04:58:41;2.90;;;1.70;;
61188;SDS011;47054;39.716;2.904;2023-05-20T05:01:26;3.13;;;1.88;;
61188;SDS011;47054;39.716;2.904;2023-05-20T05:04:11;3.33;;;1.70;;
61188;SDS011;47054;39.716;2.904;2023-05-20T05:06:55;2.55;;;1.60;;
61188;SDS011;47054;39.716;2.904;2023-05-20T05:09:41;3.63;;;1.88;;
61188;SDS011;47054;39.716;2.904;2023-05-20T05:12:25;3.90;;;1.80;;
61188;SDS011;47054;39.716;2.904;2023-05-20T05:15:10;3.20;;;1.63;;
61188;SDS011;47054;39.716;2.904;2023-05-20T05:17:55;4.18;;;1.60;;
61188;SDS011;47054;39.716;2.904;2023-05-20T05:20:39;4.45;;;1.60;;
61188;SDS011;47054;39.716;2.904;2023-05-20T05:23:25;2.80;;;1.70;;
61188;SDS011;47054;39.716;2.904;2023-05-20T05:26:09;4.22;;;1.75;;
61188;SDS011;47054;39.716;2.904;2023-05-20T05:28:54;2.67;;;1.58;;
61188;SDS011;47054;39.716;2.904;2023-05-20T05:31:40;3.70;;;1.83;;
61188;SDS011;47054;39.716;2.904;2023-05-20T05:34:24;3.72;;;2.30;;
61188;SDS011;47054;39.716;2.904;2023-05-20T05:37:09;2.45;;;1.58;;
61188;SDS011;47054;39.716;2.904;2023-05-20T05:39:54;3.38;;;1.60;;
61188;SDS011;47054;39.716;2.904;2023-05-20T05:42:39;4.93;;;1.70;;
61188;SDS011;47054;39.716;2.904;2023-05-20T05:45:24;4.18;;;1.60;;
61188;SDS011;47054;39.716;2.904;2023-05-20T05:48:09;3.80;;;2.05;;
61188;SDS011;47054;39.716;2.904;2023-05-20T05:50:53;4.00;;;1.65;;
61188;SDS011;47054;39.716;2.904;2023-05-20T05:53:38;3.33;;;1.48;;
61188;SDS011;47054;39.716;2.904;2023-05-20T05:56:23;5.10;;;2.05;;
61188;SDS011;47054;39.716;2.904;2023-05-20T05:59:08;3.75;;;1.90;;
61188;SDS011;47054;39.716;2.904;2023-05-20T06:01:53;3.13;;;1.60;;
61188;SDS011;47054;39.716;2.904;2023-05-20T06:04:38;3.88;;;1.55;;
61188;SDS011;47054;39.716;2.904;2023-05-20T06:07:22;3.38;;;1.77;;
61188;SDS011;47054;39.716;2.904;2023-05-20T06:10:08;4.88;;;2.10;;
61188;SDS011;47054;39.716;2.904;2023-05-20T06:12:53;2.90;;;1.80;;
61188;SDS011;47054;39.716;2.904;2023-05-20T06:15:38;3.38;;;2.00;;
61188;SDS011;47054;39.716;2.904;2023-05-20T06:18:24;5.65;;;1.95;;
61188;SDS011;47054;39.716;2.904;2023-05-20T06:21:12;4.38;;;1.90;;
61188;SDS011;47054;39.716;2.904;2023-05-20T06:23:57;4.55;;;2.08;;
61188;SDS011;47054;39.716;2.904;2023-05-20T06:26:42;4.78;;;1.88;;
61188;SDS011;47054;39.716;2.904;2023-05-20T06:29:29;3.70;;;1.80;;
61188;SDS011;47054;39.716;2.904;2023-05-20T06:32:14;3.90;;;2.00;;
61188;SDS011;47054;39.716;2.904;2023-05-20T06:34:59;4.93;;;2.20;;
61188;SDS011;47054;39.716;2.904;2023-05-20T06:37:43;4.78;;;2.00;;
61188;SDS011;47054;39.716;2.904;2023-05-20T06:40:28;4.28;;;2.55;;
61188;SDS011;47054;39.716;2.904;2023-05-20T06:43:12;4.80;;;2.40;;
61188;SDS011;47054;39.716;2.904;2023-05-20T06:46:15;4.63;;;2.25;;
61188;SDS011;47054;39.716;2.904;2023-05-20T06:49:09;5.00;;;2.63;;
61188;SDS011;47054;39.716;2.904;2023-05-20T06:51:53;4.05;;;2.20;;
61188;SDS011;47054;39.716;2.904;2023-05-20T06:54:38;4.80;;;2.38;;
61188;SDS011;47054;39.716;2.904;2023-05-20T06:57:26;4.30;;;2.17;;
61188;SDS011;47054;39.716;2.904;2023-05-20T07:00:11;5.43;;;2.38;;
61188;SDS011;47054;39.716;2.904;2023-05-20T07:03:00;7.85;;;2.30;;
61188;SDS011;47054;39.716;2.904;2023-05-20T07:05:45;5.65;;;2.55;;
61188;SDS011;47054;39.716;2.904;2023-05-20T07:08:31;4.88;;;2.33;;
61188;SDS011;47054;39.716;2.904;2023-05-20T07:11:15;4.07;;;2.28;;
61188;SDS011;47054;39.716;2.904;2023-05-20T07:14:00;4.43;;;2.30;;
61188;SDS011;47054;39.716;2.904;2023-05-20T07:16:47;5.78;;;2.35;;
61188;SDS011;47054;39.716;2.904;2023-05-20T07:19:32;7.22;;;2.15;;
61188;SDS011;47054;39.716;2.904;2023-05-20T07:22:16;5.10;;;2.63;;
61188;SDS011;47054;39.716;2.904;2023-05-20T07:25:33;3.97;;;2.30;;
61188;SDS011;47054;39.716;2.904;2023-05-20T07:28:18;8.35;;;2.35;;
61188;SDS011;47054;39.716;2.904;2023-05-20T07:31:04;3.55;;;2.08;;
61188;SDS011;47054;39.716;2.904;2023-05-20T07:33:52;5.13;;;1.90;;
61188;SDS011;47054;39.716;2.904;2023-05-20T07:36:37;3.20;;;2.05;;
61188;SDS011;47054;39.716;2.904;2023-05-20T07:39:23;3.90;;;2.03;;
61188;SDS011;47054;39.716;2.904;2023-05-20T07:42:09;4.57;;;2.35;;
61188;SDS011;47054;39.716;2.904;2023-05-20T07:44:56;7.80;;;2.40;;
61188;SDS011;47054;39.716;2.904;2023-05-20T07:47:41;3.55;;;2.20;;
61188;SDS011;47054;39.716;2.904;2023-05-20T07:50:26;7.10;;;2.40;;
61188;SDS011;47054;39.716;2.904;2023-05-20T07:53:11;4.65;;;2.25;;
61188;SDS011;47054;39.716;2.904;2023-05-20T07:55:56;5.95;;;2.30;;
61188;SDS011;47054;39.716;2.904;2023-05-20T07:58:50;5.03;;;2.20;;
61188;SDS011;47054;39.716;2.904;2023-05-20T08:01:36;4.47;;;2.20;;
61188;SDS011;47054;39.716;2.904;2023-05-20T08:04:23;4.80;;;2.17;;
61188;SDS011;47054;39.716;2.904;2023-05-20T08:07:08;4.90;;;2.10;;
61188;SDS011;47054;39.716;2.904;2023-05-20T08:10:03;4.07;;;2.10;;
61188;SDS011;47054;39.716;2.904;2023-05-20T08:12:49;4.75;;;2.38;;
61188;SDS011;47054;39.716;2.904;2023-05-20T08:15:34;4.30;;;2.20;;
61188;SDS011;47054;39.716;2.904;2023-05-20T08:18:19;5.93;;;2.05;;
61188;SDS011;47054;39.716;2.904;2023-05-20T08:21:05;7.93;;;2.22;;
61188;SDS011;47054;39.716;2.904;2023-05-20T08:23:53;4.40;;;2.15;;
61188;SDS011;47054;39.716;2.904;2023-05-20T08:26:38;4.97;;;2.22;;
61188;SDS011;47054;39.716;2.904;2023-05-20T08:29:23;6.60;;;2.63;;
61188;SDS011;47054;39.716;2.904;2023-05-20T08:32:08;11.55;;;2.63;;
61188;SDS011;47054;39.716;2.904;2023-05-20T08:34:53;4.53;;;2.20;;
61188;SDS011;47054;39.716;2.904;2023-05-20T08:37:39;4.82;;;2.20;;
61188;SDS011;47054;39.716;2.904;2023-05-20T08:40:23;5.93;;;2.42;;
61188;SDS011;47054;39.716;2.904;2023-05-20T08:43:10;4.93;;;2.40;;
61188;SDS011;47054;39.716;2.904;2023-05-20T08:45:55;5.47;;;2.20;;
61188;SDS011;47054;39.716;2.904;2023-05-20T08:48:42;7.25;;;2.65;;
61188;SDS011;47054;39.716;2.904;2023-05-20T08:51:27;4.40;;;2.38;;
61188;SDS011;47054;39.716;2.904;2023-05-20T08:54:15;4.43;;;2.35;;
61188;SDS011;47054;39.716;2.904;2023-05-20T08:56:59;4.18;;;2.30;;
61188;SDS011;47054;39.716;2.904;2023-05-20T08:59:44;6.93;;;2.50;;
61188;SDS011;47054;39.716;2.904;2023-05-20T09:02:35;9.82;;;2.75;;
61188;SDS011;47054;39.716;2.904;2023-05-20T09:05:21;6.07;;;2.20;;
61188;SDS011;47054;39.716;2.904;2023-05-20T09:08:06;6.78;;;2.42;;
61188;SDS011;47054;39.716;2.904;2023-05-20T09:10:53;4.45;;;2.40;;
61188;SDS011;47054;39.716;2.904;2023-05-20T09:13:38;5.38;;;2.50;;
61188;SDS011;47054;39.716;2.904;2023-05-20T09:16:22;4.38;;;2.40;;
61188;SDS011;47054;39.716;2.904;2023-05-20T09:19:07;5.63;;;2.30;;
61188;SDS011;47054;39.716;2.904;2023-05-20T09:21:53;5.90;;;2.70;;
61188;SDS011;47054;39.716;2.904;2023-05-20T09:24:41;4.20;;;2.30;;
61188;SDS011;47054;39.716;2.904;2023-05-20T09:27:25;5.38;;;2.42;;
61188;SDS011;47054;39.716;2.904;2023-05-20T09:30:10;5.15;;;2.30;;
61188;SDS011;47054;39.716;2.904;2023-05-20T09:32:56;5.68;;;2.63;;
61188;SDS011;47054;39.716;2.904;2023-05-20T09:35:42;6.25;;;2.20;;
61188;SDS011;47054;39.716;2.904;2023-05-20T09:38:27;4.40;;;2.33;;
61188;SDS011;47054;39.716;2.904;2023-05-20T09:41:19;6.03;;;2.75;;
61188;SDS011;47054;39.716;2.904;2023-05-20T09:44:06;6.13;;;2.45;;
61188;SDS011;47054;39.716;2.904;2023-05-20T09:46:51;5.80;;;2.55;;
61188;SDS011;47054;39.716;2.904;2023-05-20T09:49:37;3.92;;;2.42;;
61188;SDS011;47054;39.716;2.904;2023-05-20T09:52:23;6.70;;;2.22;;
61188;SDS011;47054;39.716;2.904;2023-05-20T09:55:09;7.60;;;2.50;;
61188;SDS011;47054;39.716;2.904;2023-05-20T09:57:54;6.05;;;2.17;;
61188;SDS011;47054;39.716;2.904;2023-05-20T10:00:40;5.75;;;2.50;;
61188;SDS011;47054;39.716;2.904;2023-05-20T10:03:24;5.03;;;2.20;;
61188;SDS011;47054;39.716;2.904;2023-05-20T10:12:34;4.50;;;2.25;;
61188;SDS011;47054;39.716;2.904;2023-05-20T10:15:42;4.25;;;2.10;;
61188;SDS011;47054;39.716;2.904;2023-05-20T10:21:26;5.70;;;2.30;;
61188;SDS011;47054;39.716;2.904;2023-05-20T10:24:11;6.13;;;2.60;;
61188;SDS011;47054;39.716;2.904;2023-05-20T10:26:56;6.03;;;2.28;;
61188;SDS011;47054;39.716;2.904;2023-05-20T10:32:30;5.22;;;2.33;;
61188;SDS011;47054;39.716;2.904;2023-05-20T10:35:19;3.40;;;2.30;;
61188;SDS011;47054;39.716;2.904;2023-05-20T10:38:11;4.22;;;2.47;;
61188;SDS011;47054;39.716;2.904;2023-05-20T10:41:06;5.97;;;2.30;;
61188;SDS011;47054;39.716;2.904;2023-05-20T10:44:02;4.28;;;2.10;;
61188;SDS011;47054;39.716;2.904;2023-05-20T10:46:48;3.97;;;2.10;;
61188;SDS011;47054;39.716;2.904;2023-05-20T10:49:45;6.63;;;2.10;;
61188;SDS011;47054;39.716;2.904;2023-05-20T10:52:36;6.50;;;2.40;;
61188;SDS011;47054;39.716;2.904;2023-05-20T10:55:21;5.10;;;2.33;;
61188;SDS011;47054;39.716;2.904;2023-05-20T10:58:06;9.43;;;2.60;;
61188;SDS011;47054;39.716;2.904;2023-05-20T11:00:53;5.75;;;2.70;;
61188;SDS011;47054;39.716;2.904;2023-05-20T11:03:42;5.75;;;2.25;;
61188;SDS011;47054;39.716;2.904;2023-05-20T11:06:27;6.82;;;2.25;;
61188;SDS011;47054;39.716;2.904;2023-05-20T11:09:13;11.02;;;2.83;;
61188;SDS011;47054;39.716;2.904;2023-05-20T11:11:59;8.85;;;2.70;;
61188;SDS011;47054;39.716;2.904;2023-05-20T11:14:43;14.38;;;3.13;;
61188;SDS011;47054;39.716;2.904;2023-05-20T11:17:28;10.50;;;2.90;;
61188;SDS011;47054;39.716;2.904;2023-05-20T11:20:13;11.13;;;2.75;;
61188;SDS011;47054;39.716;2.904;2023-05-20T11:22:58;12.85;;;2.85;;
61188;SDS011;47054;39.716;2.904;2023-05-20T11:25:42;13.77;;;2.95;;
61188;SDS011;47054;39.716;2.904;2023-05-20T11:28:27;6.53;;;2.90;;
61188;SDS011;47054;39.716;2.904;2023-05-20T11:31:14;12.27;;;3.22;;
61188;SDS011;47054;39.716;2.904;2023-05-20T11:33:59;13.57;;;2.92;;
61188;SDS011;47054;39.716;2.904;2023-05-20T11:36:47;11.55;;;3.13;;
61188;SDS011;47054;39.716;2.904;2023-05-20T11:39:36;13.25;;;3.00;;
61188;SDS011;47054;39.716;2.904;2023-05-20T11:42:20;8.65;;;3.20;;
61188;SDS011;47054;39.716;2.904;2023-05-20T11:45:05;7.20;;;2.95;;
61188;SDS011;47054;39.716;2.904;2023-05-20T11:50:47;9.20;;;3.00;;
61188;SDS011;47054;39.716;2.904;2023-05-20T11:53:32;7.32;;;2.80;;
61188;SDS011;47054;39.716;2.904;2023-05-20T11:56:17;6.63;;;3.00;;
61188;SDS011;47054;39.716;2.904;2023-05-20T11:59:02;9.65;;;2.97;;
61188;SDS011;47054;39.716;2.904;2023-05-20T12:01:48;7.07;;;3.10;;
61188;SDS011;47054;39.716;2.904;2023-05-20T12:04:32;7.95;;;3.03;;
61188;SDS011;47054;39.716;2.904;2023-05-20T12:07:17;10.02;;;3.50;;
61188;SDS011;47054;39.716;2.904;2023-05-20T12:10:02;15.50;;;3.33;;
61188;SDS011;47054;39.716;2.904;2023-05-20T12:12:47;5.40;;;3.08;;
61188;SDS011;47054;39.716;2.904;2023-05-20T12:15:31;8.45;;;2.90;;
61188;SDS011;47054;39.716;2.904;2023-05-20T12:18:16;11.50;;;3.95;;
61188;SDS011;47054;39.716;2.904;2023-05-20T12:21:00;8.15;;;3.20;;
61188;SDS011;47054;39.716;2.904;2023-05-20T12:23:45;8.00;;;3.20;;
61188;SDS011;47054;39.716;2.904;2023-05-20T12:26:29;9.27;;;3.13;;
61188;SDS011;47054;39.716;2.904;2023-05-20T12:29:14;11.13;;;3.38;;
61188;SDS011;47054;39.716;2.904;2023-05-20T12:31:59;5.85;;;3.15;;
61188;SDS011;47054;39.716;2.904;2023-05-20T12:34:44;8.07;;;3.13;;
61188;SDS011;47054;39.716;2.904;2023-05-20T12:37:29;8.32;;;3.20;;
61188;SDS011;47054;39.716;2.904;2023-05-20T12:40:14;7.45;;;3.17;;
61188;SDS011;47054;39.716;2.904;2023-05-20T12:42:59;8.60;;;3.10;;
61188;SDS011;47054;39.716;2.904;2023-05-20T12:45:44;8.55;;;3.33;;
61188;SDS011;47054;39.716;2.904;2023-05-20T12:48:30;6.10;;;3.10;;
61188;SDS011;47054;39.716;2.904;2023-05-20T12:51:14;7.93;;;3.17;;
61188;SDS011;47054;39.716;2.904;2023-05-20T12:54:00;9.23;;;3.13;;
61188;SDS011;47054;39.716;2.904;2023-05-20T12:56:44;7.20;;;2.97;;
61188;SDS011;47054;39.716;2.904;2023-05-20T12:59:31;6.65;;;3.33;;
61188;SDS011;47054;39.716;2.904;2023-05-20T13:02:16;9.45;;;3.40;;
61188;SDS011;47054;39.716;2.904;2023-05-20T13:05:05;8.50;;;3.25;;
61188;SDS011;47054;39.716;2.904;2023-05-20T13:07:50;8.48;;;3.20;;
61188;SDS011;47054;39.716;2.904;2023-05-20T13:10:35;8.40;;;3.58;;
61188;SDS011;47054;39.716;2.904;2023-05-20T13:13:19;5.78;;;3.03;;
61188;SDS011;47054;39.716;2.904;2023-05-20T13:16:05;4.90;;;2.95;;
61188;SDS011;47054;39.716;2.904;2023-05-20T13:18:50;6.70;;;3.10;;
61188;SDS011;47054;39.716;2.904;2023-05-20T13:21:34;6.90;;;3.15;;
61188;SDS011;47054;39.716;2.904;2023-05-20T13:24:19;8.18;;;3.17;;
61188;SDS011;47054;39.716;2.904;2023-05-20T13:27:05;6.43;;;3.10;;
61188;SDS011;47054;39.716;2.904;2023-05-20T13:29:49;6.57;;;3.30;;
61188;SDS011;47054;39.716;2.904;2023-05-20T13:32:34;9.07;;;3.45;;
61188;SDS011;47054;39.716;2.904;2023-05-20T13:35:19;6.40;;;3.00;;
61188;SDS011;47054;39.716;2.904;2023-05-20T13:38:04;6.03;;;3.13;;
61188;SDS011;47054;39.716;2.904;2023-05-20T13:40:48;5.32;;;3.20;;
61188;SDS011;47054;39.716;2.904;2023-05-20T13:43:33;7.20;;;3.13;;
61188;SDS011;47054;39.716;2.904;2023-05-20T13:46:17;7.22;;;3.53;;
61188;SDS011;47054;39.716;2.904;2023-05-20T13:49:02;6.47;;;3.35;;
61188;SDS011;47054;39.716;2.904;2023-05-20T13:51:46;5.90;;;3.47;;
61188;SDS011;47054;39.716;2.904;2023-05-20T13:54:31;5.63;;;3.10;;
61188;SDS011;47054;39.716;2.904;2023-05-20T13:57:16;8.63;;;3.30;;
61188;SDS011;47054;39.716;2.904;2023-05-20T14:00:00;5.50;;;3.22;;
61188;SDS011;47054;39.716;2.904;2023-05-20T14:02:46;8.00;;;4.15;;
61188;SDS011;47054;39.716;2.904;2023-05-20T14:05:31;5.72;;;3.35;;
61188;SDS011;47054;39.716;2.904;2023-05-20T14:08:15;7.07;;;3.15;;
61188;SDS011;47054;39.716;2.904;2023-05-20T14:11:00;6.53;;;3.33;;
61188;SDS011;47054;39.716;2.904;2023-05-20T14:13:45;8.57;;;3.33;;
61188;SDS011;47054;39.716;2.904;2023-05-20T14:16:29;8.82;;;3.50;;
61188;SDS011;47054;39.716;2.904;2023-05-20T14:19:15;7.18;;;3.47;;
61188;SDS011;47054;39.716;2.904;2023-05-20T14:21:59;6.57;;;3.15;;
61188;SDS011;47054;39.716;2.904;2023-05-20T14:24:44;6.95;;;3.40;;
61188;SDS011;47054;39.716;2.904;2023-05-20T14:27:29;6.28;;;3.25;;
61188;SDS011;47054;39.716;2.904;2023-05-20T14:30:13;8.70;;;3.40;;
61188;SDS011;47054;39.716;2.904;2023-05-20T14:32:57;5.10;;;2.90;;
61188;SDS011;47054;39.716;2.904;2023-05-20T14:35:42;7.28;;;3.45;;
61188;SDS011;47054;39.716;2.904;2023-05-20T14:38:27;5.80;;;3.25;;
61188;SDS011;47054;39.716;2.904;2023-05-20T14:41:12;8.38;;;3.15;;
61188;SDS011;47054;39.716;2.904;2023-05-20T14:43:56;6.70;;;3.17;;
61188;SDS011;47054;39.716;2.904;2023-05-20T14:46:41;9.15;;;3.60;;
61188;SDS011;47054;39.716;2.904;2023-05-20T14:49:25;7.97;;;2.85;;
61188;SDS011;47054;39.716;2.904;2023-05-20T14:52:10;8.13;;;3.45;;
61188;SDS011;47054;39.716;2.904;2023-05-20T14:54:55;7.40;;;3.13;;
61188;SDS011;47054;39.716;2.904;2023-05-20T14:57:39;5.45;;;3.33;;
61188;SDS011;47054;39.716;2.904;2023-05-20T15:00:24;10.57;;;3.25;;
61188;SDS011;47054;39.716;2.904;2023-05-20T15:03:09;5.63;;;2.90;;
61188;SDS011;47054;39.716;2.904;2023-05-20T15:05:54;6.00;;;3.08;;
61188;SDS011;47054;39.716;2.904;2023-05-20T15:08:38;7.53;;;3.20;;
61188;SDS011;47054;39.716;2.904;2023-05-20T15:11:24;5.45;;;3.05;;
61188;SDS011;47054;39.716;2.904;2023-05-20T15:14:09;7.50;;;3.00;;
61188;SDS011;47054;39.716;2.904;2023-05-20T15:16:54;7.90;;;3.30;;
61188;SDS011;47054;39.716;2.904;2023-05-20T15:19:38;6.50;;;3.38;;
61188;SDS011;47054;39.716;2.904;2023-05-20T15:22:32;7.82;;;3.20;;
61188;SDS011;47054;39.716;2.904;2023-05-20T15:25:16;5.75;;;3.40;;
61188;SDS011;47054;39.716;2.904;2023-05-20T15:28:00;7.30;;;3.20;;
61188;SDS011;47054;39.716;2.904;2023-05-20T15:30:45;7.65;;;3.25;;
61188;SDS011;47054;39.716;2.904;2023-05-20T15:33:36;8.75;;;2.90;;
61188;SDS011;47054;39.716;2.904;2023-05-20T15:36:21;9.15;;;3.20;;
61188;SDS011;47054;39.716;2.904;2023-05-20T15:39:05;5.00;;;3.05;;
61188;SDS011;47054;39.716;2.904;2023-05-20T15:41:51;4.53;;;2.67;;
61188;SDS011;47054;39.716;2.904;2023-05-20T15:44:36;6.80;;;3.50;;
61188;SDS011;47054;39.716;2.904;2023-05-20T15:47:21;6.13;;;2.90;;
61188;SDS011;47054;39.716;2.904;2023-05-20T15:50:06;8.23;;;3.17;;
61188;SDS011;47054;39.716;2.904;2023-05-20T15:52:51;6.85;;;3.35;;
61188;SDS011;47054;39.716;2.904;2023-05-20T15:55:36;8.05;;;3.17;;
61188;SDS011;47054;39.716;2.904;2023-05-20T15:58:20;5.18;;;3.00;;
61188;SDS011;47054;39.716;2.904;2023-05-20T16:01:06;6.90;;;3.00;;
61188;SDS011;47054;39.716;2.904;2023-05-20T16:03:51;6.95;;;2.92;;
61188;SDS011;47054;39.716;2.904;2023-05-20T16:06:36;5.55;;;2.90;;
61188;SDS011;47054;39.716;2.904;2023-05-20T16:09:20;4.97;;;2.90;;
61188;SDS011;47054;39.716;2.904;2023-05-20T16:12:05;9.15;;;3.20;;
61188;SDS011;47054;39.716;2.904;2023-05-20T16:14:50;5.22;;;3.03;;
61188;SDS011;47054;39.716;2.904;2023-05-20T16:17:35;5.95;;;3.00;;
61188;SDS011;47054;39.716;2.904;2023-05-20T16:20:20;4.38;;;3.03;;
61188;SDS011;47054;39.716;2.904;2023-05-20T16:23:05;5.95;;;3.17;;
61188;SDS011;47054;39.716;2.904;2023-05-20T16:25:50;6.63;;;3.17;;
61188;SDS011;47054;39.716;2.904;2023-05-20T16:28:34;7.78;;;3.15;;
61188;SDS011;47054;39.716;2.904;2023-05-20T16:31:19;8.02;;;3.10;;
61188;SDS011;47054;39.716;2.904;2023-05-20T16:34:04;6.13;;;3.13;;
61188;SDS011;47054;39.716;2.904;2023-05-20T16:36:49;4.72;;;2.92;;
61188;SDS011;47054;39.716;2.904;2023-05-20T16:39:34;5.57;;;2.92;;
61188;SDS011;47054;39.716;2.904;2023-05-20T16:42:19;6.25;;;2.97;;
61188;SDS011;47054;39.716;2.904;2023-05-20T16:45:04;5.32;;;2.90;;
61188;SDS011;47054;39.716;2.904;2023-05-20T16:47:49;5.07;;;2.90;;
61188;SDS011;47054;39.716;2.904;2023-05-20T16:50:34;8.10;;;3.33;;
61188;SDS011;47054;39.716;2.904;2023-05-20T16:53:18;6.55;;;2.90;;
61188;SDS011;47054;39.716;2.904;2023-05-20T16:56:06;6.57;;;3.00;;